Pagrindinis puslapis
METAR-TAF:

METAR-TAF

Oro uostai :

Trangas, Tailandas

platuma: 07-31N, ilguma: 099-37E, Aukštis: 14 m

Dabartinis oras

Ataskaita buvo paskelbta 34 minutes, ne 10:00 UTC
Vėjas 10 kt iš Šiaurės Rytų, svyruoja nuo Šiaurės ir Rytų
Temperatūra 29°C
Drėgmė 62%
Slėgis 1008 hPa
Matomumas: 9000 m
Mažai debesys ne aukštis 2500 ft

METAR: VTST 171000Z 05010KT 360V090 9000 FEW025 29/21 Q1008 NOSIG

Laikas: 17:34 (10:34 UTC)

Prognozė

Ataskaita buvo paskelbta 5 valandos ir 34 minutes, ne 05:00 UTC
Prognozė galioja nuo 17 metu 06 UTC su 18 metu 06 UTC
Vėjas 8 kt iš Rytų/Šiaurės Rytų
Matomumas 10 km arba daugiau
Mažai debesys ne aukštis 2000 ft

TAF: VTST 170500Z 1706/1806 06008KT 9999 FEW020

Orai ataskaitas ir orų prognozės (METAR, TAF).

turimą stotys yra geltonos ir raudonos taškus žemėlapyje.

Perkelti pele per norėdami pamatyti stoties vardą.

Tada spustelėkite, norėdami matyti oro stebėjimo ir prognozės.

Norėdami pakeisti žemėlapį: spustelėkite ant žalios mygtukų su juodo kryžiaus žemyn,; žalią mygtuką su brūkšneliu, jei norite nutolinti; arba žalių rodyklių gretimoms žemėlapius.


METAR-TAF: